Time;durP1;ratioP1;P1;durP2;ratioP2;P2;SDS_P1;SDS_P2;PMS_P1;PMS_P2;Temp;Humidity;BMP_temperature;BMP_pressure;BME280_temperature;BME280_humidity;BME280_pressure;Samples;Min_cycle;Max_cycle;Signal;HPM_P1;HPM_P2
2022/06/06 00:00:49;;;;;;;15.90;6.97;;;;;;;13.24;100.00;101002.72;5015298;28;20033;-77
2022/06/06 00:03:16;;;;;;;16.08;6.90;;;;;;;13.22;100.00;100997.50;5032326;28;20109;-76
2022/06/06 00:05:43;;;;;;;13.23;6.20;;;;;;;13.21;100.00;100990.47;5015320;28;20058;-77
2022/06/06 00:08:11;;;;;;;9.70;6.38;;;;;;;13.21;100.00;100989.59;5033836;28;20041;-76
2022/06/06 00:10:42;;;;;;;12.77;6.18;;;;;;;13.17;100.00;100986.25;5016085;28;20033;-77
2022/06/06 00:13:09;;;;;;;13.63;6.43;;;;;;;13.14;100.00;100981.94;5034833;28;20116;-76
2022/06/06 00:15:35;;;;;;;13.38;6.15;;;;;;;13.14;100.00;100978.44;5007788;28;20123;-76
2022/06/06 00:18:02;;;;;;;9.85;5.72;;;;;;;13.13;100.00;100976.72;5031560;28;20512;-76
2022/06/06 00:20:28;;;;;;;13.30;6.47;;;;;;;13.11;100.00;100973.28;5032910;28;20041;-76
2022/06/06 00:22:54;;;;;;;11.45;5.72;;;;;;;13.09;100.00;100976.03;4999554;28;20104;-77
2022/06/06 00:25:19;;;;;;;13.05;6.32;;;;;;;13.08;100.00;100968.97;5013689;28;20044;-77
2022/06/06 00:27:45;;;;;;;10.13;5.93;;;;;;;13.08;100.00;100974.28;5029650;28;20053;-76
2022/06/06 00:30:11;;;;;;;9.13;5.28;;;;;;;13.07;100.00;100972.59;5011766;28;20480;-75
2022/06/06 00:35:21;;;;;;;10.18;5.72;;;;;;;13.03;100.00;100969.22;5013214;28;20385;-76
2022/06/06 00:37:47;;;;;;;12.32;5.90;;;;;;;13.03;100.00;100965.75;5028733;28;20091;-76
2022/06/06 00:40:17;;;;;;;10.35;5.43;;;;;;;13.01;100.00;100959.63;5012635;28;20506;-75
2022/06/06 00:42:43;;;;;;;13.57;5.80;;;;;;;12.99;100.00;100964.19;5012155;28;20520;-74
2022/06/06 00:45:14;;;;;;;8.32;5.03;;;;;;;12.98;100.00;100965.13;4994887;28;20041;-76
2022/06/06 00:47:41;;;;;;;9.00;5.00;;;;;;;12.94;100.00;100966.22;5019753;28;20602;-75
2022/06/06 00:50:15;;;;;;;13.80;5.70;;;;;;;12.92;100.00;100957.47;5027591;28;20068;-76
2022/06/06 00:52:42;;;;;;;10.32;5.25;;;;;;;12.92;100.00;100970.75;5012127;28;20021;-76
2022/06/06 00:55:17;;;;;;;11.15;4.95;;;;;;;12.90;100.00;100965.50;5013517;28;21551;-76
2022/06/06 00:57:48;;;;;;;10.18;5.45;;;;;;;12.88;100.00;100973.59;5007696;28;20041;-76
2022/06/06 01:00:16;;;;;;;9.90;5.32;;;;;;;12.86;100.00;100971.94;5013152;28;20070;-76
2022/06/06 01:02:43;;;;;;;9.90;5.45;;;;;;;12.83;100.00;100970.31;5011655;28;20039;-74
2022/06/06 01:05:10;;;;;;;9.90;5.13;;;;;;;12.82;100.00;100971.25;5028101;28;20053;-75
2022/06/06 01:07:35;;;;;;;9.77;4.82;;;;;;;12.79;100.00;100967.91;5028511;28;20036;-77
2022/06/06 01:10:01;;;;;;;10.20;5.10;;;;;;;12.76;100.00;100969.75;5011114;28;20932;-77
2022/06/06 01:12:29;;;;;;;8.57;4.55;;;;;;;12.72;100.00;100960.25;5028550;28;20042;-75
2022/06/06 01:14:58;;;;;;;12.95;5.55;;;;;;;12.72;100.00;100962.91;5012727;28;20484;-77
2022/06/06 01:17:35;;;;;;;10.60;4.72;;;;;;;12.71;100.00;100957.69;4995277;28;20041;-74
2022/06/06 01:20:09;;;;;;;10.80;4.95;;;;;;;12.71;100.00;100960.34;5029421;28;20091;-76
2022/06/06 01:23:09;;;;;;;14.05;5.47;;;;;;;12.70;100.00;100961.28;5016779;28;20047;-75
2022/06/06 01:25:53;;;;;;;9.88;5.28;;;;;;;12.70;100.00;100953.31;5022884;28;20061;-76
2022/06/06 01:28:46;;;;;;;13.85;5.32;;;;;;;12.71;100.00;100952.38;5036498;28;20168;-76
2022/06/06 01:31:17;;;;;;;11.40;4.97;;;;;;;12.70;100.00;100954.16;5019155;28;20032;-76
2022/06/06 01:33:58;;;;;;;9.55;4.45;;;;;;;12.70;100.00;100953.31;5018624;28;20040;-76
2022/06/06 01:36:27;;;;;;;11.15;5.22;;;;;;;12.71;100.00;100963.00;5010290;28;20033;-76
2022/06/06 01:38:53;;;;;;;6.85;4.68;;;;;;;12.70;100.00;100958.63;5002281;28;20036;-77
2022/06/06 01:41:42;;;;;;;9.63;4.28;;;;;;;12.70;100.00;100953.31;5035370;28;20032;-78
2022/06/06 01:44:43;;;;;;;9.82;5.20;;;;;;;12.71;100.00;100961.19;5034576;28;20552;-77
2022/06/06 01:47:15;;;;;;;9.32;4.43;;;;;;;12.71;100.00;100960.34;5027230;28;20087;-76
2022/06/06 01:49:40;;;;;;;9.55;4.82;;;;;;;12.72;100.00;100956.72;5017814;28;20136;-80
2022/06/06 01:52:12;;;;;;;8.20;4.55;;;;;;;12.73;100.00;100958.44;5018355;28;20028;-78
2022/06/06 01:54:39;;;;;;;7.72;4.38;;;;;;;12.72;100.00;100948.75;5018502;28;20040;-78
2022/06/06 01:57:05;;;;;;;10.57;4.95;;;;;;;12.72;100.00;100952.28;5017159;28;20496;-77
2022/06/06 01:59:32;;;;;;;8.77;4.72;;;;;;;12.72;100.00;100954.06;5034533;28;20045;-77
2022/06/06 02:01:58;;;;;;;8.55;4.55;;;;;;;12.71;100.00;100960.34;5035950;28;20596;-77
2022/06/06 02:04:23;;;;;;;11.18;4.68;;;;;;;12.71;100.00;100955.03;5033867;28;20094;-77
2022/06/06 02:06:49;;;;;;;8.45;4.15;;;;;;;12.70;100.00;100948.00;5036492;28;20033;-77
2022/06/06 02:09:14;;;;;;;12.23;5.18;;;;;;;12.69;100.00;100948.94;5035283;28;20047;-77
2022/06/06 02:11:40;;;;;;;6.85;4.45;;;;;;;12.66;100.00;100954.41;5036452;28;20036;-77
2022/06/06 02:14:07;;;;;;;9.30;4.18;;;;;;;12.65;100.00;100950.03;5017200;28;20158;-77
2022/06/06 02:16:36;;;;;;;8.48;4.30;;;;;;;12.62;100.00;100956.34;5033620;28;20049;-77
2022/06/06 02:19:02;;;;;;;7.47;4.20;;;;;;;12.59;100.00;100957.38;5035677;28;20108;-76
2022/06/06 02:21:27;;;;;;;9.30;4.10;;;;;;;12.58;100.00;100953.00;5035635;28;20037;-75
2022/06/06 02:23:53;;;;;;;9.02;4.57;;;;;;;12.57;100.00;100963.69;5000743;28;20033;-77
2022/06/06 02:26:19;;;;;;;6.15;4.32;;;;;;;12.54;100.00;100963.88;5030892;28;20130;-77
2022/06/06 02:28:44;;;;;;;7.47;4.22;;;;;;;12.53;100.00;100973.63;5014871;28;20041;-78
2022/06/06 02:31:10;;;;;;;7.28;4.38;;;;;;;12.52;100.00;100973.72;4996878;28;20472;-78
2022/06/06 02:33:36;;;;;;;8.35;4.90;;;;;;;12.50;100.00;100969.31;5031002;28;20053;-77
2022/06/06 02:36:03;;;;;;;6.15;3.92;;;;;;;12.52;100.00;100963.94;5013507;28;20040;-77
2022/06/06 02:38:29;;;;;;;6.70;3.90;;;;;;;12.51;100.00;100959.56;5030898;28;20033;-77
2022/06/06 02:41:07;;;;;;;7.05;4.30;;;;;;;12.53;100.00;100968.31;4996924;28;20033;-78
2022/06/06 02:43:37;;;;;;;6.35;3.92;;;;;;;12.54;100.00;100964.75;4997535;28;20044;-77
2022/06/06 02:46:04;;;;;;;6.45;4.03;;;;;;;12.54;100.00;100970.06;5029979;28;20033;-77
2022/06/06 02:48:33;;;;;;;6.70;3.97;;;;;;;12.55;100.00;100968.25;4989640;28;20425;-78
2022/06/06 02:51:00;;;;;;;6.63;4.55;;;;;;;12.56;100.00;100962.84;5029534;28;21755;-77
2022/06/06 02:53:26;;;;;;;8.48;4.32;;;;;;;12.56;100.00;100965.50;5005632;28;20025;-77
2022/06/06 02:55:53;;;;;;;6.72;4.65;;;;;;;12.57;100.00;100964.56;5030389;28;20357;-77
2022/06/06 02:58:22;;;;;;;7.53;4.35;;;;;;;12.59;100.00;100973.31;5015096;28;20041;-77
2022/06/06 03:00:48;;;;;;;9.32;4.35;;;;;;;12.58;100.00;100976.91;5014996;28;20144;-78
2022/06/06 03:03:14;;;;;;;8.00;4.88;;;;;;;12.60;100.00;100974.19;5014296;28;20025;-77
2022/06/06 03:06:32;;;;;;;7.85;4.72;;;;;;;12.59;100.00;100977.78;5014763;28;20033;-77
2022/06/06 03:09:29;;;;;;;8.05;4.40;;;;;;;12.58;100.00;100979.56;4976478;28;20076;-78
2022/06/06 03:12:13;;;;;;;7.00;3.92;;;;;;;12.59;100.00;100972.47;5013094;28;20037;-78
2022/06/06 03:15:12;;;;;;;5.95;3.42;;;;;;;12.59;100.00;100977.78;5015035;28;20592;-75
2022/06/06 03:20:56;;;;;;;8.30;4.10;;;;;;;12.58;100.00;100974.25;5014712;28;20539;-77
2022/06/06 03:23:31;;;;;;;6.25;3.90;;;;;;;12.59;100.00;100975.13;5005173;28;20124;-78
2022/06/06 03:26:05;;;;;;;6.22;3.55;;;;;;;12.58;100.00;100974.25;5029667;28;20049;-77
2022/06/06 03:28:49;;;;;;;6.53;3.83;;;;;;;12.57;100.00;100972.53;5012774;28;20103;-77
2022/06/06 03:31:20;;;;;;;7.10;3.72;;;;;;;12.59;100.00;100969.81;5014790;28;20063;-78
2022/06/06 03:34:03;;;;;;;5.57;3.78;;;;;;;12.59;100.00;100973.31;5013730;28;20049;-77
2022/06/06 03:36:39;;;;;;;5.68;3.53;;;;;;;12.59;100.00;100967.16;5029710;28;20033;-77
2022/06/06 03:39:44;;;;;;;4.45;3.60;;;;;;;12.61;100.00;100970.56;5013975;28;20061;-77
2022/06/06 03:42:44;;;;;;;5.35;3.63;;;;;;;12.63;100.00;100974.00;4988469;28;20048;-77
2022/06/06 03:45:32;;;;;;;6.78;4.47;;;;;;;12.65;100.00;100971.28;4989314;28;20120;-77
2022/06/06 03:48:35;;;;;;;6.25;4.20;;;;;;;12.65;100.00;100966.84;5015280;28;20135;-79
2022/06/06 03:51:06;;;;;;;5.00;3.42;;;;;;;12.66;100.00;100973.00;5014190;28;20668;-78
2022/06/06 03:53:43;;;;;;;8.32;4.38;;;;;;;12.65;100.00;100972.16;5014225;28;20037;-80
2022/06/06 03:56:32;;;;;;;8.68;4.05;;;;;;;12.67;100.00;100966.72;4995536;28;20037;-78
2022/06/06 03:58:59;;;;;;;5.28;4.05;;;;;;;12.68;100.00;100960.50;5013930;28;20038;-78
2022/06/06 04:01:25;;;;;;;9.20;4.68;;;;;;;12.70;100.00;100963.94;5028528;28;20087;-78
2022/06/06 04:03:52;;;;;;;7.00;3.88;;;;;;;12.72;100.00;100968.22;4996140;28;20033;-79
2022/06/06 04:06:18;;;;;;;7.25;3.72;;;;;;;12.74;100.00;100981.41;5012164;28;20036;-78
2022/06/06 04:08:44;;;;;;;7.15;3.67;;;;;;;12.74;100.00;100971.66;5013931;28;20120;-79
2022/06/06 04:11:42;;;;;;;3.97;3.03;;;;;;;12.74;100.00;100970.78;4996017;28;20467;-77
2022/06/06 04:14:17;;;;;;;3.55;2.78;;;;;;;12.71;100.00;100973.63;4996445;28;20029;-82
2022/06/06 04:17:07;;;;;;;4.53;3.30;;;;;;;12.66;100.00;100967.69;4996002;28;20145;-78
2022/06/06 04:19:42;;;;;;;3.22;2.42;;;;;;;12.65;100.00;100971.28;5013823;28;20064;-77
2022/06/06 04:22:23;;;;;;;2.78;1.88;;;;;;;12.59;100.00;100960.03;5013001;28;21057;-78
2022/06/06 04:24:52;;;;;;;2.90;2.30;;;;;;;12.56;100.00;100972.59;4996385;28;20040;-77
2022/06/06 04:27:28;;;;;;;2.85;2.13;;;;;;;12.54;100.00;100963.88;5031889;28;20435;-77
2022/06/06 04:30:05;;;;;;;2.95;2.25;;;;;;;12.50;100.00;100973.78;4999712;28;20048;-77
2022/06/06 04:32:49;;;;;;;3.03;2.30;;;;;;;12.44;100.00;100979.41;5032030;28;20036;-79
2022/06/06 04:35:31;;;;;;;4.10;2.45;;;;;;;12.44;100.00;100982.06;5033100;28;20045;-79
2022/06/06 04:38:19;;;;;;;6.50;3.10;;;;;;;12.41;100.00;100983.09;5015447;28;20041;-76
2022/06/06 04:41:06;;;;;;;5.97;3.53;;;;;;;12.40;100.00;100984.03;5014765;28;20033;-81
2022/06/06 04:43:37;;;;;;;7.32;3.78;;;;;;;12.35;100.00;100986.91;4997964;28;20060;-77
2022/06/06 04:46:10;;;;;;;7.65;4.40;;;;;;;12.32;100.00;100981.75;5015251;28;20467;-79
2022/06/06 04:48:36;;;;;;;9.32;4.30;;;;;;;12.32;100.00;100984.41;5033817;28;20463;-78
2022/06/06 04:51:03;;;;;;;9.02;4.75;;;;;;;12.31;100.00;100980.03;5014511;28;20111;-77
2022/06/06 04:53:31;;;;;;;9.13;4.60;;;;;;;12.30;100.00;100991.59;4998594;28;20032;-78
2022/06/06 04:55:57;;;;;;;8.93;4.63;;;;;;;12.30;100.00;100994.25;4998312;28;20021;-79
2022/06/06 04:58:26;;;;;;;10.45;4.88;;;;;;;12.30;100.00;100988.06;5014875;28;20377;-80
2022/06/06 05:00:52;;;;;;;9.60;4.90;;;;;;;12.28;100.00;100990.81;5031577;28;20134;-81
2022/06/06 05:03:17;;;;;;;10.75;5.32;;;;;;;12.27;100.00;100994.41;5032901;28;20426;-79
2022/06/06 05:05:52;;;;;;;10.68;5.07;;;;;;;12.26;100.00;100984.72;5032625;28;20037;-78
2022/06/06 05:08:23;;;;;;;10.48;4.90;;;;;;;12.25;100.00;100988.31;5033378;28;20128;-79
2022/06/06 05:11:03;;;;;;;6.90;3.85;;;;;;;12.23;100.00;100992.84;5033237;28;20037;-79
2022/06/06 05:13:32;;;;;;;6.75;3.72;;;;;;;12.20;100.00;100987.69;5033331;28;20814;-80
2022/06/06 05:16:02;;;;;;;8.05;4.53;;;;;;;12.17;100.00;100998.44;5032332;28;20033;-77
2022/06/06 05:18:44;;;;;;;9.25;4.60;;;;;;;12.14;100.00;100995.97;5005207;28;20098;-78
2022/06/06 05:21:28;;;;;;;8.77;4.97;;;;;;;12.08;100.00;100995.31;5030818;28;20588;-80
2022/06/06 05:24:07;;;;;;;9.02;4.28;;;;;;;12.03;100.00;100985.81;5033145;28;20060;-80
2022/06/06 05:26:40;;;;;;;11.80;5.00;;;;;;;12.00;100.00;100994.81;5027499;28;20564;-82
2022/06/06 05:29:27;;;;;;;9.70;4.90;;;;;;;11.98;100.00;100995.81;5028308;28;20030;-79
2022/06/06 05:31:56;;;;;;;10.50;5.18;;;;;;;12.00;100.00;100996.59;5013531;28;20036;-84
2022/06/06 05:34:25;;;;;;;12.02;4.90;;;;;;;11.98;100.00;100994.00;5014002;28;20045;-81
2022/06/06 05:36:59;;;;;;;12.13;5.40;;;;;;;11.98;100.00;101011.75;5012461;28;20044;-82
2022/06/06 05:39:35;;;;;;;12.88;5.15;;;;;;;11.94;100.00;101005.72;5019597;28;20048;-82
2022/06/06 05:42:12;;;;;;;13.13;5.53;;;;;;;11.90;100.00;101010.31;5011213;28;20072;-79
2022/06/06 05:44:46;;;;;;;8.63;4.47;;;;;;;11.87;100.00;101001.66;5013219;28;20034;-81
2022/06/06 05:47:24;;;;;;;10.38;4.75;;;;;;;11.86;100.00;101011.41;5027504;28;20045;-80
2022/06/06 05:49:58;;;;;;;12.05;5.25;;;;;;;11.87;100.00;101012.28;5012962;28;20400;-78
2022/06/06 05:52:51;;;;;;;11.75;5.13;;;;;;;11.87;100.00;101014.91;5012448;28;20484;-78
2022/06/06 05:55:32;;;;;;;11.63;5.25;;;;;;;11.86;100.00;101018.47;4994444;28;20073;-78
2022/06/06 05:58:26;;;;;;;10.65;5.43;;;;;;;11.85;100.00;101020.28;5027871;28;20209;-78
2022/06/06 06:00:54;;;;;;;13.10;5.28;;;;;;;11.84;100.00;101025.66;5027803;28;20072;-78
2022/06/06 06:03:51;;;;;;;9.95;4.55;;;;;;;11.82;100.00;101021.28;5018550;28;20060;-80
2022/06/06 06:06:26;;;;;;;9.15;4.50;;;;;;;11.81;100.00;101024.00;5015455;28;20099;-79
2022/06/06 06:09:24;;;;;;;6.93;3.80;;;;;;;11.82;100.00;101031.03;5030813;28;20037;-79
2022/06/06 06:12:14;;;;;;;5.00;2.72;;;;;;;11.84;100.00;101028.31;5003436;28;20049;-80
2022/06/06 06:14:52;;;;;;;3.20;2.50;;;;;;;11.83;100.00;101040.75;5016395;28;20049;-78
2022/06/06 06:17:20;;;;;;;2.65;1.80;;;;;;;11.83;100.00;101038.09;5030612;28;20073;-77
2022/06/06 06:19:53;;;;;;;2.95;1.77;;;;;;;11.82;100.00;101034.56;5016501;28;20075;-79
2022/06/06 06:22:19;;;;;;;;;;;;;;;11.84;100.00;101038.94;5021659;28;20511;-79
2022/06/06 06:24:44;;;;;;;2.30;1.52;;;;;;;11.85;100.00;101038.00;4997537;28;19925;-78
2022/06/06 06:27:12;;;;;;;3.25;2.08;;;;;;;11.89;100.00;101042.22;5014685;28;20150;-78
2022/06/06 06:29:38;;;;;;;3.80;1.98;;;;;;;11.93;100.00;101035.84;5015416;28;20244;-78
2022/06/06 06:32:26;;;;;;;3.80;2.08;;;;;;;11.97;100.00;101034.75;5015716;28;20122;-79
2022/06/06 06:34:51;;;;;;;3.22;1.98;;;;;;;12.00;100.00;101049.66;5011351;28;20045;-79
2022/06/06 06:37:32;;;;;;;4.30;2.47;;;;;;;12.01;100.00;101048.72;5031235;28;20542;-79
2022/06/06 06:40:13;;;;;;;2.53;1.95;;;;;;;12.04;100.00;101051.28;5013848;28;20476;-79
2022/06/06 06:43:04;;;;;;;3.63;1.83;;;;;;;12.05;100.00;101056.50;5030598;28;20077;-79
2022/06/06 06:45:34;;;;;;;3.00;1.90;;;;;;;12.06;100.00;101058.25;5015438;28;20168;-77
2022/06/06 06:48:03;;;;;;;2.67;1.83;;;;;;;12.07;100.00;101062.59;5014271;28;20060;-79
2022/06/06 06:50:45;;;;;;;4.40;2.38;;;;;;;12.12;100.00;101066.81;5030240;28;20099;-81
2022/06/06 06:53:19;;;;;;;4.03;2.27;;;;;;;12.18;100.00;101058.56;5030672;28;20241;-78
2022/06/06 06:56:07;;;;;;;3.97;2.40;;;;;;;12.21;100.00;101069.03;5015954;28;20037;-79
2022/06/06 06:58:52;;;;;;;2.78;2.17;;;;;;;12.27;100.00;101054.59;5020043;28;20037;-82
2022/06/06 07:01:26;;;;;;;3.45;1.95;;;;;;;12.34;100.00;101067.50;5021754;28;20030;-80
2022/06/06 07:10:14;;;;;;;2.20;1.85;;;;;;;12.41;100.00;101083.13;5021935;28;20120;-80
2022/06/06 07:13:06;;;;;;;3.05;2.15;;;;;;;12.40;100.00;101084.03;5027736;28;20049;-78
2022/06/06 07:15:49;;;;;;;4.25;1.85;;;;;;;12.35;100.00;101074.53;5033081;28;20541;-79
2022/06/06 07:18:17;;;;;;;3.50;2.05;;;;;;;12.32;100.00;101077.31;5031972;28;20045;-79
2022/06/06 07:20:45;;;;;;;4.10;2.20;;;;;;;12.31;100.00;101080.06;4998160;28;20032;-79
2022/06/06 07:23:12;;;;;;;3.80;1.98;;;;;;;12.27;100.00;101076.72;5030337;28;20400;-81
2022/06/06 07:25:41;;;;;;;3.28;1.85;;;;;;;12.26;100.00;101079.44;5017766;28;20049;-79
2022/06/06 07:28:18;;;;;;;4.25;2.33;;;;;;;12.25;100.00;101094.47;5016763;28;20052;-80
2022/06/06 07:31:12;;;;;;;3.22;2.28;;;;;;;12.25;100.00;101091.81;5016809;28;20032;-79
2022/06/06 07:33:47;;;;;;;3.17;2.35;;;;;;;12.24;100.00;101087.47;5034474;28;20416;-79
2022/06/06 07:36:31;;;;;;;4.97;2.45;;;;;;;12.24;100.00;101095.41;5016948;28;20041;-78
2022/06/06 07:39:16;;;;;;;4.20;2.53;;;;;;;12.25;100.00;101086.53;5016457;28;20057;-80
2022/06/06 07:42:07;;;;;;;4.15;2.90;;;;;;;12.30;100.00;101089.81;5032224;28;20033;-79
2022/06/06 07:44:55;;;;;;;5.43;2.67;;;;;;;12.39;100.00;101082.31;5007790;28;20033;-79
2022/06/06 07:47:46;;;;;;;4.05;2.60;;;;;;;12.49;100.00;101083.59;5023600;28;20040;-79
2022/06/06 07:50:19;;;;;;;5.25;2.90;;;;;;;12.64;100.00;101063.38;5034565;28;20044;-76
2022/06/06 07:52:55;;;;;;;3.88;2.83;;;;;;;12.81;100.00;101078.44;5023865;28;20033;-80
2022/06/06 07:56:13;;;;;;;4.65;2.92;;;;;;;12.96;100.00;101081.28;5034136;28;20180;-80
2022/06/06 07:58:46;;;;;;;4.43;2.42;;;;;;;13.04;100.00;101079.91;4986632;28;20053;-79
2022/06/06 08:01:37;;;;;;;3.78;2.60;;;;;;;13.08;100.00;101075.28;5034303;28;20048;-80
2022/06/06 08:04:13;;;;;;;2.97;2.22;;;;;;;13.15;100.00;101057.25;5016059;28;20556;-78
2022/06/06 08:07:08;;;;;;;5.57;2.17;;;;;;;13.13;100.00;101073.25;5032987;28;20128;-81
2022/06/06 08:09:52;;;;;;;3.45;2.58;;;;;;;13.13;100.00;101067.94;5034767;28;20028;-79
2022/06/06 08:12:34;;;;;;;2.35;1.90;;;;;;;13.16;100.00;101072.25;5033756;28;20404;-80
2022/06/06 08:15:21;;;;;;;2.55;2.00;;;;;;;13.28;100.00;101060.09;5032725;28;20028;-78
2022/06/06 08:18:01;;;;;;;5.57;1.95;;;;;;;13.37;100.00;101064.94;5032102;28;20153;-79
2022/06/06 08:20:48;;;;;;;2.67;1.80;;;;;;;13.40;100.00;101064.75;5016045;28;20490;-80
2022/06/06 08:23:14;;;;;;;3.92;2.22;;;;;;;13.37;100.00;101072.91;5016050;28;20032;-79
2022/06/06 08:25:42;;;;;;;4.07;2.10;;;;;;;13.31;100.00;101076.75;5032427;28;20135;-79
2022/06/06 08:28:10;;;;;;;4.60;2.20;;;;;;;13.26;100.00;101072.63;5031684;28;20033;-78
2022/06/06 08:30:36;;;;;;;4.25;2.35;;;;;;;13.12;100.00;101076.88;5015713;28;20803;-80
2022/06/06 08:33:02;;;;;;;3.63;2.08;;;;;;;13.04;100.00;101085.22;5015378;28;20029;-78
2022/06/06 08:35:44;;;;;;;2.83;1.98;;;;;;;13.04;100.00;101068.44;5033622;28;20459;-79
2022/06/06 08:38:27;;;;;;;2.60;1.73;;;;;;;13.01;100.00;101080.09;5014109;28;20044;-82
2022/06/06 08:41:23;;;;;;;2.33;2.08;;;;;;;12.95;100.00;101083.06;5034189;28;20408;-79
2022/06/06 08:43:58;;;;;;;3.08;2.00;;;;;;;12.94;100.00;101077.81;5023608;28;20115;-80
2022/06/06 08:46:39;;;;;;;3.85;2.38;;;;;;;13.00;100.00;101080.16;5033664;28;20044;-79
2022/06/06 08:52:47;;;;;;;8.30;2.40;;;;;;;13.01;100.00;101069.47;5032575;28;20060;-78
2022/06/06 08:55:24;;;;;;;4.78;2.53;;;;;;;12.99;100.00;101076.66;5033157;28;20079;-80
2022/06/06 08:58:32;;;;;;;3.60;2.80;;;;;;;12.92;100.00;101074.38;5022977;28;20040;-79
2022/06/06 09:01:28;;;;;;;5.97;2.85;;;;;;;12.85;100.00;101080.00;4988645;28;20484;-83
2022/06/06 09:04:17;;;;;;;7.03;3.30;;;;;;;12.81;100.00;101078.44;5033650;28;20095;-80
2022/06/06 09:07:03;;;;;;;6.07;3.80;;;;;;;12.77;100.00;101071.59;5034996;28;20432;-82
2022/06/06 09:09:47;;;;;;;4.15;3.35;;;;;;;12.84;100.00;101069.47;5034384;28;20033;-80
2022/06/06 09:13:00;;;;;;;10.60;5.88;;;;;;;12.94;100.00;101073.38;5023742;28;20978;-83
2022/06/06 09:15:47;;;;;;;10.52;5.32;;;;;;;13.01;100.00;101069.47;4988823;28;20102;-80
2022/06/06 09:18:55;;;;;;;8.88;5.18;;;;;;;13.11;100.00;101066.31;5032219;28;20049;-80
2022/06/06 09:21:47;;;;;;;8.43;4.32;;;;;;;13.21;100.00;101064.03;5034188;28;20383;-84
2022/06/06 09:24:38;;;;;;;7.70;4.30;;;;;;;13.35;100.00;101060.63;5004747;28;20768;-83
2022/06/06 09:27:41;;;;;;;5.88;3.65;;;;;;;13.52;100.00;101065.06;5029421;28;20049;-80
2022/06/06 09:30:40;;;;;;;5.88;3.20;;;;;;;13.58;100.00;101046.97;5015537;28;20038;-83
2022/06/06 09:33:25;;;;;;;3.40;2.60;;;;;;;13.71;100.00;101047.16;5017035;28;20037;-82
2022/06/06 09:36:15;;;;;;;4.53;3.00;;;;;;;13.94;100.00;101053.00;5033666;28;20042;-82
2022/06/06 09:39:03;;;;;;;3.67;2.80;;;;;;;14.03;100.00;101053.41;5017698;28;20484;-84
2022/06/06 09:41:59;;;;;;;2.88;2.58;;;;;;;14.11;100.00;101048.53;5035116;28;20098;-84
2022/06/06 09:44:43;;;;;;;4.63;2.80;;;;;;;14.20;100.00;101050.66;5020014;28;20458;-80
2022/06/06 09:47:24;;;;;;;4.32;2.25;;;;;;;14.23;100.00;101042.47;5036009;28;20050;-81
2022/06/06 09:50:06;;;;;;;2.85;2.00;;;;;;;14.28;100.00;101044.03;5019358;28;20033;-82
2022/06/06 09:52:38;;;;;;;3.08;1.75;;;;;;;14.34;100.00;101049.00;5015727;28;20091;-81
2022/06/06 09:59:03;;;;;;;4.57;1.90;;;;;;;14.35;100.00;101043.59;5029632;28;20427;-80
2022/06/06 10:02:05;;;;;;;3.13;1.25;;;;;;;14.36;100.00;101050.63;4998753;28;20029;-83
2022/06/06 10:04:56;;;;;;;4.20;1.80;;;;;;;14.37;100.00;101060.31;5032114;28;20045;-81
2022/06/06 10:07:52;;;;;;;2.65;1.67;;;;;;;14.53;100.00;101054.97;5031919;28;20645;-85
2022/06/06 10:10:27;;;;;;;3.00;1.52;;;;;;;14.68;100.00;101052.34;5032851;28;20063;-81
2022/06/06 10:13:03;;;;;;;1.65;1.15;;;;;;;14.70;100.00;101049.59;5017135;28;20071;-83
2022/06/06 10:15:41;;;;;;;2.33;1.15;;;;;;;14.66;99.24;101048.91;5032352;28;20751;-81
2022/06/06 10:18:16;;;;;;;1.90;1.58;;;;;;;14.69;100.00;101059.38;5032157;28;20053;-83
2022/06/06 10:20:50;;;;;;;3.38;1.60;;;;;;;14.71;100.00;101051.31;5017988;28;20083;-83
2022/06/06 10:23:27;;;;;;;2.33;1.27;;;;;;;14.87;100.00;101043.28;5006906;28;20046;-84
2022/06/06 10:26:12;;;;;;;2.50;1.45;;;;;;;15.13;96.80;101027.47;5007040;28;20065;-82
2022/06/06 10:28:59;;;;;;;1.23;1.13;;;;;;;15.21;98.03;101066.06;5032257;28;20037;-81
2022/06/06 10:31:32;;;;;;;3.80;1.55;;;;;;;15.22;100.00;101045.59;5032241;28;20034;-86
2022/06/06 10:34:20;;;;;;;2.83;2.10;;;;;;;15.31;100.00;101044.16;5017933;28;20048;-82
2022/06/06 10:36:51;;;;;;;1.30;1.10;;;;;;;15.50;100.00;101059.00;5017660;28;20033;-81
2022/06/06 10:39:58;;;;;;;2.97;1.60;;;;;;;15.61;94.49;101052.06;5030561;28;20043;-85
2022/06/06 10:42:34;;;;;;;2.47;1.33;;;;;;;15.69;96.72;101056.03;5047886;28;21516;-82
2022/06/06 10:45:09;;;;;;;3.42;1.38;;;;;;;15.48;92.96;101051.94;5016939;28;20044;-85
2022/06/06 10:47:54;;;;;;;3.85;1.58;;;;;;;15.41;100.00;101055.97;5016621;28;20088;-82
2022/06/06 10:50:33;;;;;;;3.50;1.40;;;;;;;15.34;100.00;101060.84;5014204;28;20037;-81
2022/06/06 10:53:33;;;;;;;1.58;1.27;;;;;;;15.24;94.09;101056.16;5014906;28;20045;-81
2022/06/06 10:56:41;;;;;;;4.30;1.38;;;;;;;15.11;98.31;101058.72;5016898;28;20134;-81
2022/06/06 10:59:22;;;;;;;1.90;1.25;;;;;;;15.04;96.90;101056.41;5016457;28;20068;-80
2022/06/06 11:02:03;;;;;;;2.28;1.40;;;;;;;14.97;94.91;101071.06;5023222;28;20037;-79
2022/06/06 11:04:56;;;;;;;4.07;1.30;;;;;;;14.95;98.08;101059.66;5015034;28;20060;-80
2022/06/06 11:07:43;;;;;;;1.75;1.27;;;;;;;15.00;98.93;101068.25;5013999;28;20477;-79
2022/06/06 11:10:27;;;;;;;1.73;1.20;;;;;;;14.96;95.03;101060.50;5022258;28;20570;-80
2022/06/06 11:13:11;;;;;;;2.45;1.60;;;;;;;14.92;97.84;101067.81;5015972;28;20037;-80
2022/06/06 11:15:41;;;;;;;2.55;1.45;;;;;;;14.94;98.24;101055.28;5013824;28;20434;-80
2022/06/06 11:18:07;;;;;;;2.70;1.70;;;;;;;14.96;99.88;101060.50;5009360;28;20072;-82
2022/06/06 11:20:48;;;;;;;2.40;1.70;;;;;;;15.01;100.00;101061.09;5016460;28;20035;-78
2022/06/06 11:23:40;;;;;;;4.90;1.75;;;;;;;15.08;100.00;101051.75;4997862;28;20045;-81
2022/06/06 11:26:13;;;;;;;1.65;1.55;;;;;;;15.16;97.67;101068.13;5020785;28;20049;-79
2022/06/06 11:28:48;;;;;;;6.93;1.90;;;;;;;15.14;98.93;101053.22;5035709;28;20044;-79
2022/06/06 11:31:24;;;;;;;4.05;1.48;;;;;;;15.16;99.48;101048.63;5024706;28;21044;-79
2022/06/06 11:34:25;;;;;;;2.83;1.55;;;;;;;15.09;99.45;101057.97;4992952;28;20090;-81
2022/06/06 11:37:27;;;;;;;2.03;1.83;;;;;;;14.99;99.81;101061.16;4992678;28;20042;-79
2022/06/06 11:40:32;;;;;;;3.42;1.80;;;;;;;14.94;99.88;101060.63;5034156;28;20175;-78
2022/06/06 11:43:12;;;;;;;2.10;1.50;;;;;;;14.87;100.00;101056.59;5024911;28;20089;-79
2022/06/06 11:46:08;;;;;;;4.68;1.88;;;;;;;14.79;100.00;101055.25;5017274;28;20029;-76
2022/06/06 11:48:56;;;;;;;2.33;1.63;;;;;;;14.72;99.03;101055.69;5034910;28;20388;-77
2022/06/06 11:51:49;;;;;;;2.53;1.70;;;;;;;14.65;100.00;101063.16;5008878;28;20082;-78
2022/06/06 11:54:23;;;;;;;3.40;2.60;;;;;;;14.50;100.00;101052.47;5034848;28;20128;-77
2022/06/06 11:57:25;;;;;;;2.03;1.63;;;;;;;14.31;100.00;101054.47;5034162;28;20047;-77
2022/06/06 12:00:15;;;;;;;2.58;2.13;;;;;;;14.18;100.00;101054.34;5016654;28;20051;-79
2022/06/06 12:02:49;;;;;;;5.18;2.20;;;;;;;14.20;100.00;101039.13;5016699;28;20079;-79
2022/06/06 12:05:28;;;;;;;3.83;2.22;;;;;;;14.25;100.00;101042.41;5016057;28;20424;-80
2022/06/06 12:08:12;;;;;;;4.55;1.90;;;;;;;14.23;100.00;101042.47;5016651;28;20108;-79
2022/06/06 12:10:47;;;;;;;2.50;1.80;;;;;;;14.19;100.00;101042.75;5032159;28;20199;-79
2022/06/06 12:13:24;;;;;;;3.70;2.17;;;;;;;14.09;100.00;101045.06;5016514;28;20067;-78
2022/06/06 12:16:07;;;;;;;5.40;2.42;;;;;;;13.96;100.00;101044.94;5034085;28;20068;-77
2022/06/06 12:18:33;;;;;;;4.05;2.63;;;;;;;13.78;100.00;101046.81;5023434;28;20498;-77
2022/06/06 12:21:23;;;;;;;4.40;3.05;;;;;;;13.70;100.00;101040.13;5034168;28;20049;-77
2022/06/06 12:24:14;;;;;;;3.72;2.85;;;;;;;13.69;100.00;101034.88;5016433;28;20029;-77
2022/06/06 12:26:43;;;;;;;2.83;1.98;;;;;;;13.69;100.00;101038.38;4996850;28;20055;-76